createdAt,value
2023-03-28T00:01:13.969Z,2.05
2023-03-28T00:03:42.710Z,2.03
2023-03-28T00:06:12.917Z,1.85
2023-03-28T00:08:42.694Z,1.60
2023-03-28T00:11:18.827Z,1.65
2023-03-28T00:13:48.224Z,2.63
2023-03-28T00:16:17.817Z,2.17
2023-03-28T00:18:46.657Z,1.40
2023-03-28T00:21:24.480Z,2.07
2023-03-28T00:23:53.876Z,1.92
2023-03-28T00:26:26.931Z,1.97
2023-03-28T00:28:55.820Z,1.27
2023-03-28T00:31:26.648Z,1.80
2023-03-28T00:33:56.396Z,1.90
2023-03-28T00:36:29.883Z,1.75
2023-03-28T00:38:58.532Z,1.88
2023-03-28T00:41:32.317Z,1.57
2023-03-28T00:44:03.062Z,1.63
2023-03-28T00:46:36.649Z,1.70
2023-03-28T00:49:12.447Z,1.83
2023-03-28T00:51:46.311Z,2.07
2023-03-28T00:54:17.869Z,2.13
2023-03-28T00:56:50.985Z,2.05
2023-03-28T00:59:21.356Z,1.98
2023-03-28T01:01:50.002Z,1.97
2023-03-28T01:04:22.207Z,2.10
2023-03-28T01:06:55.056Z,2.10
2023-03-28T01:09:24.676Z,2.13
2023-03-28T01:11:57.746Z,1.83
2023-03-28T01:14:29.997Z,2.58
2023-03-28T01:16:58.769Z,1.50
2023-03-28T01:19:42.706Z,2.00
2023-03-28T01:22:57.153Z,1.77
2023-03-28T01:25:53.671Z,1.67
2023-03-28T01:28:41.735Z,1.83
2023-03-28T01:31:42.849Z,1.80
2023-03-28T01:34:29.517Z,2.03
2023-03-28T01:37:23.707Z,1.40
2023-03-28T01:40:07.177Z,1.77
2023-03-28T01:42:46.462Z,1.95
2023-03-28T01:45:20.182Z,2.33
2023-03-28T01:47:57.366Z,2.23
2023-03-28T01:50:53.437Z,1.90
2023-03-28T01:53:31.568Z,2.30
2023-03-28T01:56:04.913Z,2.10
2023-03-28T01:58:44.781Z,1.95
2023-03-28T02:01:16.663Z,2.10
2023-03-28T02:03:49.831Z,2.13
2023-03-28T02:06:21.148Z,2.27
2023-03-28T02:08:52.646Z,2.20
2023-03-28T02:11:21.164Z,2.03
2023-03-28T02:13:54.770Z,2.05
2023-03-28T02:16:24.710Z,2.20
2023-03-28T02:18:57.851Z,2.30
2023-03-28T02:21:30.885Z,1.77
2023-03-28T02:24:01.417Z,1.75
2023-03-28T02:26:30.703Z,2.00
2023-03-28T02:29:00.903Z,1.85
2023-03-28T02:31:30.526Z,1.67
2023-03-28T02:33:59.018Z,2.22
2023-03-28T02:36:43.255Z,2.05
2023-03-28T02:39:46.455Z,2.65
2023-03-28T02:42:45.399Z,2.15
2023-03-28T02:45:56.241Z,1.92
2023-03-28T02:48:37.988Z,2.25
2023-03-28T02:51:18.053Z,1.97
2023-03-28T02:53:54.230Z,1.88
2023-03-28T02:56:31.934Z,2.80
2023-03-28T02:59:05.854Z,1.95
2023-03-28T03:01:36.882Z,2.25
2023-03-28T03:04:05.594Z,1.90
2023-03-28T03:06:35.236Z,2.03
2023-03-28T03:09:04.816Z,2.70
2023-03-28T03:11:34.855Z,2.17
2023-03-28T03:14:04.017Z,2.65
2023-03-28T03:16:33.223Z,2.33
2023-03-28T03:19:02.766Z,2.05
2023-03-28T03:21:31.033Z,2.15
2023-03-28T03:23:59.623Z,2.45
2023-03-28T03:26:28.324Z,3.30
2023-03-28T03:28:58.279Z,1.95
2023-03-28T03:31:44.385Z,2.35
2023-03-28T03:34:15.751Z,2.08
2023-03-28T03:36:44.797Z,1.90
2023-03-28T03:39:13.051Z,2.15
2023-03-28T03:41:41.813Z,2.33
2023-03-28T03:44:12.644Z,2.58
2023-03-28T03:46:41.776Z,2.27
2023-03-28T03:49:10.632Z,2.58
2023-03-28T03:51:40.471Z,3.33
2023-03-28T03:54:08.880Z,2.85
2023-03-28T03:56:38.236Z,2.15
2023-03-28T03:59:06.591Z,2.50
2023-03-28T04:01:39.497Z,3.45
2023-03-28T04:04:08.359Z,3.17
2023-03-28T04:06:38.751Z,1.77
2023-03-28T04:09:07.689Z,3.20
2023-03-28T04:11:37.291Z,2.38
2023-03-28T04:14:05.857Z,2.50
2023-03-28T04:16:40.382Z,2.00
2023-03-28T04:19:13.993Z,2.20
2023-03-28T04:21:43.789Z,2.50
2023-03-28T04:24:15.643Z,2.47
2023-03-28T04:26:45.909Z,1.65
2023-03-28T04:29:14.981Z,2.50
2023-03-28T04:31:50.103Z,1.60
2023-03-28T04:34:20.033Z,1.80
2023-03-28T04:36:48.461Z,2.05
2023-03-28T04:39:16.782Z,3.28
2023-03-28T04:41:48.020Z,1.80
2023-03-28T04:44:16.828Z,2.28
2023-03-28T04:46:48.898Z,2.58
2023-03-28T04:49:17.453Z,3.05
2023-03-28T04:51:46.982Z,2.03
2023-03-28T04:54:16.022Z,2.20
2023-03-28T04:56:48.094Z,1.83
2023-03-28T04:59:17.802Z,1.73
2023-03-28T05:01:50.017Z,1.38
2023-03-28T05:04:19.254Z,2.47
2023-03-28T05:06:49.529Z,2.10
2023-03-28T05:09:18.655Z,2.40
2023-03-28T05:11:47.559Z,2.38
2023-03-28T05:14:15.946Z,2.95
2023-03-28T05:16:44.779Z,2.15
2023-03-28T05:19:14.659Z,2.20
2023-03-28T05:21:42.888Z,3.33
2023-03-28T05:24:11.961Z,2.28
2023-03-28T05:26:41.242Z,2.97
2023-03-28T05:29:10.163Z,2.93
2023-03-28T05:31:39.112Z,2.35
2023-03-28T05:34:09.143Z,1.65
2023-03-28T05:36:38.884Z,2.00
2023-03-28T05:39:07.400Z,2.00
2023-03-28T05:41:36.030Z,4.10
2023-03-28T05:44:05.381Z,7.63
2023-03-28T05:46:33.871Z,4.20
2023-03-28T05:49:02.236Z,2.88
2023-03-28T05:51:30.417Z,3.30
2023-03-28T05:54:00.074Z,4.53
2023-03-28T05:56:29.046Z,3.25
2023-03-28T05:58:57.171Z,2.40
2023-03-28T06:01:27.778Z,2.28
2023-03-28T06:03:57.492Z,3.90
2023-03-28T06:06:25.720Z,2.25
2023-03-28T06:08:53.797Z,2.67
2023-03-28T06:11:23.437Z,2.38
2023-03-28T06:13:51.816Z,2.63
2023-03-28T06:16:20.113Z,3.97
2023-03-28T06:19:14.302Z,14.95
2023-03-28T06:21:46.002Z,9.88
2023-03-28T06:24:14.896Z,3.72
2023-03-28T06:26:44.999Z,3.60
2023-03-28T06:29:13.376Z,3.30
2023-03-28T06:31:41.637Z,3.05
2023-03-28T06:34:09.920Z,2.88
2023-03-28T06:36:38.691Z,4.13
2023-03-28T06:39:07.769Z,3.87
2023-03-28T06:41:36.193Z,3.05
2023-03-28T06:44:07.277Z,6.10
2023-03-28T06:46:35.570Z,13.57
2023-03-28T06:49:04.416Z,5.70
2023-03-28T06:51:33.039Z,4.50
2023-03-28T06:55:15.836Z,4.15
2023-03-28T06:59:05.438Z,3.40
2023-03-28T07:09:54.639Z,3.07
2023-03-28T07:12:22.925Z,2.95
2023-03-28T07:14:52.090Z,4.15
2023-03-28T07:17:21.755Z,2.92
2023-03-28T07:19:55.390Z,3.50
2023-03-28T07:22:23.716Z,2.97
2023-03-28T07:24:53.276Z,3.55
2023-03-28T07:27:23.345Z,4.15
2023-03-28T07:29:52.754Z,3.35
2023-03-28T07:32:20.988Z,3.40
2023-03-28T07:34:52.608Z,3.95
2023-03-28T07:37:21.038Z,4.05
2023-03-28T07:39:50.037Z,4.35
2023-03-28T07:42:20.585Z,4.80
2023-03-28T07:44:49.835Z,4.10
2023-03-28T07:47:18.341Z,4.00
2023-03-28T07:49:47.310Z,3.92
2023-03-28T07:52:20.687Z,3.80
2023-03-28T07:54:49.067Z,3.33
2023-03-28T07:57:22.213Z,4.18
2023-03-28T07:59:50.774Z,3.42
2023-03-28T08:02:20.315Z,6.90
2023-03-28T08:04:48.817Z,5.05
2023-03-28T08:07:23.061Z,4.03
2023-03-28T08:09:52.299Z,4.35
2023-03-28T08:12:21.913Z,4.50
2023-03-28T08:14:50.172Z,4.20
2023-03-28T08:17:18.440Z,4.10
2023-03-28T08:19:46.702Z,3.78
2023-03-28T08:22:16.733Z,4.13
2023-03-28T08:24:45.659Z,3.42
2023-03-28T08:27:14.873Z,3.35
2023-03-28T08:29:58.157Z,3.80
2023-03-28T08:32:26.868Z,3.75
2023-03-28T08:34:55.823Z,3.67
2023-03-28T08:37:24.965Z,3.45
2023-03-28T08:39:54.791Z,3.42
2023-03-28T08:42:47.050Z,3.20
2023-03-28T08:45:29.148Z,2.78
2023-03-28T08:48:08.704Z,3.20
2023-03-28T08:50:40.969Z,3.22
2023-03-28T08:53:20.191Z,2.88
2023-03-28T08:55:51.653Z,2.88
2023-03-28T08:58:25.004Z,2.47
2023-03-28T09:00:55.067Z,3.03
2023-03-28T09:03:25.460Z,3.30
2023-03-28T09:06:01.143Z,2.83
2023-03-28T09:08:53.886Z,2.83
2023-03-28T09:11:34.188Z,4.25
2023-03-28T09:14:14.624Z,3.60
2023-03-28T09:16:55.573Z,2.78
2023-03-28T09:19:47.848Z,3.28
2023-03-28T09:22:30.342Z,3.13
2023-03-28T09:25:16.006Z,2.22
2023-03-28T09:27:54.267Z,2.10
2023-03-28T09:30:27.922Z,2.17
2023-03-28T09:33:01.538Z,2.72
2023-03-28T09:35:31.893Z,2.42
2023-03-28T09:38:04.454Z,2.33
2023-03-28T09:40:34.832Z,1.95
2023-03-28T09:43:14.262Z,2.20
2023-03-28T09:45:53.732Z,2.40
2023-03-28T09:48:27.363Z,2.92
2023-03-28T09:50:57.191Z,2.45
2023-03-28T09:53:27.854Z,1.63
2023-03-28T09:56:04.315Z,2.08
2023-03-28T09:58:50.519Z,2.40
2023-03-28T10:01:31.674Z,2.58
2023-03-28T10:04:02.559Z,2.67
2023-03-28T10:06:33.106Z,2.40
2023-03-28T10:09:18.266Z,1.98
2023-03-28T10:11:50.464Z,2.33
2023-03-28T10:14:33.864Z,2.17
2023-03-28T10:17:08.323Z,3.03
2023-03-28T10:20:55.177Z,3.90
2023-03-28T10:27:35.578Z,1.65
2023-03-28T10:31:04.771Z,1.33
2023-03-28T10:34:27.864Z,1.55
2023-03-28T10:37:55.804Z,1.65
2023-03-28T10:40:38.990Z,2.05
2023-03-28T10:43:25.198Z,1.88
2023-03-28T10:46:14.334Z,1.50
2023-03-28T10:49:03.680Z,1.90
2023-03-28T10:51:50.768Z,1.63
2023-03-28T10:54:54.369Z,1.35
2023-03-28T10:57:42.286Z,1.30
2023-03-28T11:00:50.544Z,1.40
2023-03-28T11:03:36.334Z,1.95
2023-03-28T11:06:15.328Z,1.92
2023-03-28T11:08:56.020Z,1.23
2023-03-28T11:11:47.463Z,1.60
2023-03-28T11:14:28.310Z,1.45
2023-03-28T11:17:03.812Z,1.30
2023-03-28T11:19:52.294Z,1.35
2023-03-28T11:22:30.695Z,1.30
2023-03-28T11:25:08.736Z,2.00
2023-03-28T11:27:43.380Z,1.27
2023-03-28T11:30:18.052Z,1.90
2023-03-28T11:32:51.077Z,1.33
2023-03-28T11:35:27.499Z,1.48
2023-03-28T11:38:02.210Z,1.50
2023-03-28T11:40:36.414Z,1.20
2023-03-28T11:43:07.125Z,1.38
2023-03-28T11:45:51.326Z,1.77
2023-03-28T11:48:26.547Z,1.92
2023-03-28T11:51:04.224Z,1.63
2023-03-28T11:53:38.540Z,1.45
2023-03-28T11:56:19.690Z,1.67
2023-03-28T11:58:51.502Z,2.08
2023-03-28T12:01:24.348Z,1.80
2023-03-28T12:04:04.315Z,2.13
2023-03-28T12:06:55.905Z,2.05
2023-03-28T12:09:35.722Z,1.80
2023-03-28T12:12:11.695Z,1.60
2023-03-28T12:14:53.373Z,1.95
2023-03-28T12:17:24.338Z,1.27
2023-03-28T12:19:55.436Z,1.75
2023-03-28T12:22:30.474Z,1.42
2023-03-28T12:25:03.577Z,1.55
2023-03-28T12:27:42.592Z,1.58
2023-03-28T12:30:21.431Z,1.50
2023-03-28T12:32:58.276Z,1.75
2023-03-28T12:35:34.859Z,1.58
2023-03-28T12:38:12.228Z,1.33
2023-03-28T12:40:57.599Z,1.98
2023-03-28T12:43:46.004Z,1.80
2023-03-28T12:46:17.786Z,1.90
2023-03-28T12:48:50.985Z,1.77
2023-03-28T12:51:29.876Z,1.92
2023-03-28T12:54:08.332Z,1.52
2023-03-28T12:56:36.976Z,2.30
2023-03-28T12:59:37.818Z,1.67
2023-03-28T13:02:15.057Z,2.13
2023-03-28T13:04:53.352Z,2.22
2023-03-28T13:07:29.584Z,1.65
2023-03-28T13:10:06.558Z,1.92
2023-03-28T13:12:49.572Z,1.58
2023-03-28T13:15:36.680Z,1.98
2023-03-28T13:18:28.376Z,1.48
2023-03-28T13:20:57.667Z,1.40
2023-03-28T13:23:34.986Z,1.70
2023-03-28T13:26:04.786Z,2.15
2023-03-28T13:28:44.085Z,1.73
2023-03-28T13:31:21.216Z,1.60
2023-03-28T13:33:55.102Z,1.90
2023-03-28T13:36:30.735Z,1.70
2023-03-28T13:39:24.928Z,1.50
2023-03-28T13:41:59.171Z,1.60
2023-03-28T13:44:43.379Z,1.52
2023-03-28T13:47:24.520Z,3.03
2023-03-28T13:50:00.339Z,1.80
2023-03-28T13:52:28.545Z,1.38
2023-03-28T13:55:16.566Z,1.45
2023-03-28T13:57:46.257Z,2.05
2023-03-28T14:00:17.916Z,1.40
2023-03-28T14:02:48.430Z,1.90
2023-03-28T14:05:21.837Z,1.52
2023-03-28T14:07:51.468Z,1.38
2023-03-28T14:10:40.736Z,1.60
2023-03-28T14:13:14.793Z,1.40
2023-03-28T14:15:44.404Z,1.50
2023-03-28T14:18:18.519Z,1.80
2023-03-28T14:20:47.940Z,1.42
2023-03-28T14:23:29.826Z,1.67
2023-03-28T14:26:02.473Z,1.65
2023-03-28T14:28:31.738Z,1.52
2023-03-28T14:31:00.941Z,1.60
2023-03-28T14:33:37.450Z,1.33
2023-03-28T14:36:07.131Z,1.60
2023-03-28T14:38:39.750Z,1.88
2023-03-28T14:41:15.193Z,1.70
2023-03-28T14:43:44.390Z,1.63
2023-03-28T14:46:14.095Z,1.33
2023-03-28T14:48:45.681Z,1.13
2023-03-28T14:51:22.347Z,1.73
2023-03-28T14:53:57.746Z,1.23
2023-03-28T14:56:29.421Z,1.38
2023-03-28T14:59:02.749Z,1.50
2023-03-28T15:01:34.011Z,1.55
2023-03-28T15:04:08.289Z,1.13
2023-03-28T15:06:43.015Z,1.30
2023-03-28T15:09:18.209Z,1.40
2023-03-28T15:11:58.497Z,1.40
2023-03-28T15:14:33.782Z,1.60
2023-03-28T15:17:07.018Z,2.15
2023-03-28T15:19:40.163Z,1.40
2023-03-28T15:22:12.678Z,1.40
2023-03-28T15:24:48.292Z,1.17
2023-03-28T15:27:29.651Z,1.70
2023-03-28T15:29:59.581Z,1.58
2023-03-28T15:32:29.352Z,1.20
2023-03-28T15:35:02.293Z,1.40
2023-03-28T15:37:40.924Z,1.92
2023-03-28T15:40:22.692Z,1.85
2023-03-28T15:42:53.137Z,1.40
2023-03-28T15:45:37.373Z,2.45
2023-03-28T15:48:06.183Z,2.00
2023-03-28T15:50:37.603Z,1.95
2023-03-28T15:53:09.235Z,1.73
2023-03-28T15:55:38.371Z,1.60
2023-03-28T15:58:11.530Z,2.65
2023-03-28T16:00:43.169Z,1.30
2023-03-28T16:03:26.223Z,1.65
2023-03-28T16:06:04.499Z,1.63
2023-03-28T16:08:42.662Z,1.52
2023-03-28T16:11:17.429Z,2.55
2023-03-28T16:13:48.334Z,1.65
2023-03-28T16:16:25.006Z,2.30
2023-03-28T16:18:54.504Z,1.67
2023-03-28T16:21:23.198Z,1.90
2023-03-28T16:23:51.740Z,1.63
2023-03-28T16:26:20.422Z,1.63
2023-03-28T16:28:50.302Z,1.92
2023-03-28T16:31:19.121Z,2.17
2023-03-28T16:33:48.279Z,1.90
2023-03-28T16:36:16.915Z,1.77
2023-03-28T16:38:46.196Z,1.88
2023-03-28T16:41:14.764Z,1.58
2023-03-28T16:43:43.138Z,1.90
2023-03-28T16:46:12.939Z,1.88
2023-03-28T16:48:41.603Z,2.20
2023-03-28T16:51:09.973Z,1.73
2023-03-28T16:53:40.178Z,1.80
2023-03-28T16:56:11.994Z,1.98
2023-03-28T16:58:40.891Z,1.58
2023-03-28T17:01:13.986Z,2.00
2023-03-28T17:03:43.883Z,1.60
2023-03-28T17:06:13.159Z,1.63
2023-03-28T17:08:42.004Z,1.65
2023-03-28T17:11:12.341Z,2.03
2023-03-28T17:13:43.188Z,2.10
2023-03-28T17:16:12.378Z,2.38
2023-03-28T17:18:40.743Z,1.77
2023-03-28T17:21:12.431Z,1.42
2023-03-28T17:23:43.186Z,1.50
2023-03-28T17:26:14.199Z,1.65
2023-03-28T17:28:43.532Z,2.10
2023-03-28T17:31:14.182Z,1.73
2023-03-28T17:33:42.879Z,1.60
2023-03-28T17:36:21.998Z,1.85
2023-03-28T17:38:51.533Z,1.90
2023-03-28T17:41:23.076Z,1.48
2023-03-28T17:43:52.043Z,1.70
2023-03-28T17:46:21.542Z,1.90
2023-03-28T17:48:53.062Z,1.52
2023-03-28T17:51:24.035Z,1.40
2023-03-28T17:53:52.626Z,1.60
2023-03-28T17:56:22.332Z,1.58
2023-03-28T17:58:50.819Z,1.70
2023-03-28T18:01:19.752Z,1.10
2023-03-28T18:03:48.436Z,1.92
2023-03-28T18:06:17.051Z,2.30
2023-03-28T18:08:47.551Z,1.02
2023-03-28T18:11:18.809Z,1.10
2023-03-28T18:13:47.365Z,1.35
2023-03-28T18:16:18.250Z,1.45
2023-03-28T18:18:46.885Z,2.00
2023-03-28T18:21:16.513Z,1.30
2023-03-28T18:23:46.510Z,1.55
2023-03-28T18:26:15.043Z,1.20
2023-03-28T18:28:44.054Z,1.23
2023-03-28T18:31:14.337Z,1.13
2023-03-28T18:33:44.210Z,1.02
2023-03-28T18:36:14.021Z,1.30
2023-03-28T18:38:43.634Z,1.75
2023-03-28T18:41:14.040Z,1.17
2023-03-28T18:43:43.587Z,1.27
2023-03-28T18:46:15.961Z,1.33
2023-03-28T18:48:45.576Z,1.30
2023-03-28T18:51:14.116Z,1.55
2023-03-28T18:53:42.569Z,1.40
2023-03-28T18:56:13.483Z,1.10
2023-03-28T18:58:44.066Z,0.90
2023-03-28T19:01:12.797Z,1.02
2023-03-28T19:03:42.402Z,1.40
2023-03-28T19:06:12.621Z,1.30
2023-03-28T19:08:41.435Z,1.30
2023-03-28T19:11:12.294Z,1.15
2023-03-28T19:13:41.512Z,0.90
2023-03-28T19:16:13.589Z,1.80
2023-03-28T19:18:43.407Z,1.15
2023-03-28T19:21:12.726Z,1.50
2023-03-28T19:23:41.568Z,1.48
2023-03-28T19:26:12.134Z,1.20
2023-03-28T19:28:41.121Z,1.67
2023-03-28T19:31:13.279Z,1.17
2023-03-28T19:33:43.080Z,1.40
2023-03-28T19:36:12.229Z,1.40
2023-03-28T19:38:40.805Z,1.10
2023-03-28T19:41:19.044Z,1.25
2023-03-28T19:43:48.896Z,1.25
2023-03-28T19:46:23.382Z,1.23
2023-03-28T19:48:54.901Z,1.50
2023-03-28T19:51:23.879Z,1.17
2023-03-28T19:53:52.531Z,1.00
2023-03-28T19:56:23.047Z,1.02
2023-03-28T19:58:52.180Z,1.20
2023-03-28T20:01:22.538Z,1.65
2023-03-28T20:03:53.355Z,1.00
2023-03-28T20:06:23.433Z,1.35
2023-03-28T20:08:53.875Z,1.00
2023-03-28T20:11:22.161Z,1.40
2023-03-28T20:13:50.813Z,1.42
2023-03-28T20:16:19.288Z,1.27
2023-03-28T20:18:49.384Z,1.35
2023-03-28T20:21:18.153Z,1.20
2023-03-28T20:23:46.468Z,1.13
2023-03-28T20:26:18.290Z,1.30
2023-03-28T20:28:49.978Z,1.05
2023-03-28T20:31:19.334Z,1.10
2023-03-28T20:33:49.125Z,1.20
2023-03-28T20:36:17.728Z,1.50
2023-03-28T20:38:46.487Z,1.23
2023-03-28T20:41:17.183Z,1.77
2023-03-28T20:43:47.981Z,1.10
2023-03-28T20:46:19.658Z,0.85
2023-03-28T20:48:53.025Z,1.35
2023-03-28T20:51:23.639Z,1.10
2023-03-28T20:53:55.518Z,1.35
2023-03-28T20:56:24.973Z,1.50
2023-03-28T20:58:53.626Z,1.33
2023-03-28T21:01:26.495Z,1.33
2023-03-28T21:03:57.453Z,1.30
2023-03-28T21:06:29.393Z,1.50
2023-03-28T21:08:59.092Z,1.13
2023-03-28T21:11:30.584Z,1.27
2023-03-28T21:14:07.042Z,1.40
2023-03-28T21:16:37.468Z,1.40
2023-03-28T21:19:08.213Z,1.33
2023-03-28T21:21:36.798Z,1.55
2023-03-28T21:24:07.296Z,1.20
2023-03-28T21:26:36.070Z,1.90
2023-03-28T21:29:05.258Z,1.30
2023-03-28T21:31:34.103Z,1.17
2023-03-28T21:34:02.648Z,1.73
2023-03-28T21:36:32.693Z,1.42
2023-03-28T21:39:01.425Z,1.42
2023-03-28T21:41:30.220Z,1.40
2023-03-28T21:43:59.762Z,1.50
2023-03-28T21:46:54.908Z,1.45
2023-03-28T21:49:32.948Z,1.23
2023-03-28T21:52:06.893Z,1.23
2023-03-28T21:54:37.978Z,1.15
2023-03-28T21:57:07.069Z,1.15
2023-03-28T21:59:35.464Z,2.20
2023-03-28T22:02:04.622Z,1.40
2023-03-28T22:04:33.704Z,1.40
2023-03-28T22:07:40.908Z,1.40
2023-03-28T22:10:13.470Z,1.15
2023-03-28T22:12:46.731Z,2.03
2023-03-28T22:15:16.142Z,1.55
2023-03-28T22:17:50.995Z,1.88
2023-03-28T22:20:22.641Z,1.52
2023-03-28T22:23:01.155Z,1.20
2023-03-28T22:25:34.938Z,1.30
2023-03-28T22:28:09.288Z,1.20
2023-03-28T22:30:39.300Z,1.80
2023-03-28T22:33:11.273Z,1.35
2023-03-28T22:35:39.681Z,1.10
2023-03-28T22:38:19.568Z,1.20
2023-03-28T22:40:50.957Z,1.10
2023-03-28T22:43:20.077Z,1.58
2023-03-28T22:45:55.393Z,1.20
2023-03-28T22:48:31.514Z,1.40
2023-03-28T22:51:01.895Z,1.27
2023-03-28T22:53:32.919Z,1.25
2023-03-28T22:56:07.000Z,1.60
2023-03-28T22:58:36.213Z,1.35
2023-03-28T23:01:04.970Z,1.17
2023-03-28T23:03:40.100Z,0.90
2023-03-28T23:06:09.263Z,1.70
2023-03-28T23:08:39.037Z,1.20
2023-03-28T23:11:08.697Z,1.20
2023-03-28T23:13:40.929Z,1.20
2023-03-28T23:18:55.005Z,1.30
2023-03-28T23:21:32.212Z,1.27
2023-03-28T23:24:12.009Z,1.27
2023-03-28T23:26:40.715Z,1.00
2023-03-28T23:29:12.857Z,1.30
2023-03-28T23:31:43.096Z,1.52
2023-03-28T23:34:14.978Z,1.67
2023-03-28T23:40:22.512Z,1.55
2023-03-28T23:43:52.172Z,2.97
2023-03-28T23:47:16.701Z,1.50
2023-03-28T23:50:29.997Z,1.90
2023-03-28T23:57:15.859Z,2.03
